createdAt,value
2019-02-14T00:00:06.496Z,25.32
2019-02-14T00:02:34.879Z,25.52
2019-02-14T00:05:03.900Z,29.15
2019-02-14T00:07:32.303Z,22.45
2019-02-14T00:10:00.689Z,23.67
2019-02-14T00:12:29.079Z,26.35
2019-02-14T00:14:57.471Z,23.30
2019-02-14T00:17:25.855Z,30.65
2019-02-14T00:19:54.240Z,22.52
2019-02-14T00:22:22.627Z,22.90
2019-02-14T00:24:51.020Z,24.40
2019-02-14T00:27:19.475Z,23.77
2019-02-14T00:29:47.860Z,24.67
2019-02-14T00:32:16.248Z,20.88
2019-02-14T00:34:44.632Z,21.82
2019-02-14T00:37:13.023Z,27.00
2019-02-14T00:39:41.409Z,18.75
2019-02-14T00:42:09.803Z,22.73
2019-02-14T00:44:38.179Z,22.82
2019-02-14T00:47:06.567Z,20.15
2019-02-14T00:49:34.956Z,21.37
2019-02-14T00:52:03.363Z,22.48
2019-02-14T00:54:31.723Z,20.57
2019-02-14T00:57:00.111Z,23.92
2019-02-14T00:59:28.820Z,22.30
2019-02-14T01:01:57.206Z,20.92
2019-02-14T01:04:25.598Z,24.95
2019-02-14T01:06:53.979Z,21.70
2019-02-14T01:09:22.386Z,29.10
2019-02-14T01:11:50.770Z,20.52
2019-02-14T01:14:19.231Z,19.17
2019-02-14T01:16:47.621Z,25.90
2019-02-14T01:19:16.584Z,25.17
2019-02-14T01:21:44.969Z,23.87
2019-02-14T01:24:13.359Z,33.67
2019-02-14T01:26:41.744Z,25.55
2019-02-14T01:29:10.136Z,20.30
2019-02-14T01:31:38.525Z,22.75
2019-02-14T01:34:06.985Z,24.30
2019-02-14T01:36:35.365Z,26.87
2019-02-14T01:39:04.207Z,22.87
2019-02-14T01:41:32.585Z,25.00
2019-02-14T01:44:00.985Z,20.27
2019-02-14T01:46:29.361Z,29.15
2019-02-14T01:48:57.751Z,38.15
2019-02-14T01:51:26.136Z,30.60
2019-02-14T01:53:54.533Z,32.30
2019-02-14T01:56:22.923Z,29.95
2019-02-14T01:58:51.313Z,24.40
2019-02-14T02:01:19.698Z,29.15
2019-02-14T02:03:48.156Z,33.13
2019-02-14T02:06:16.540Z,29.32
2019-02-14T02:08:44.931Z,29.92
2019-02-14T02:11:13.338Z,35.95
2019-02-14T02:13:41.736Z,33.35
2019-02-14T02:16:10.123Z,25.50
2019-02-14T02:18:39.583Z,25.27
2019-02-14T02:21:07.966Z,29.65
2019-02-14T02:23:36.348Z,26.60
2019-02-14T02:26:04.800Z,22.10
2019-02-14T02:28:33.335Z,25.15
2019-02-14T02:31:01.708Z,21.68
2019-02-14T02:33:30.128Z,22.10
2019-02-14T02:36:00.503Z,24.30
2019-02-14T02:38:28.601Z,22.27
2019-02-14T02:40:56.988Z,23.62
2019-02-14T02:43:25.378Z,24.40
2019-02-14T02:45:53.764Z,26.07
2019-02-14T02:48:22.163Z,24.15
2019-02-14T02:50:50.551Z,18.70
2019-02-14T02:53:19.005Z,18.32
2019-02-14T02:55:47.384Z,21.97
2019-02-14T02:58:15.778Z,23.55
2019-02-14T03:00:44.468Z,19.60
2019-02-14T03:03:12.855Z,23.27
2019-02-14T03:05:41.232Z,22.15
2019-02-14T03:08:09.646Z,19.60
2019-02-14T03:10:38.009Z,20.40
2019-02-14T03:13:06.400Z,18.57
2019-02-14T03:15:34.792Z,17.87
2019-02-14T03:18:03.248Z,18.32
2019-02-14T03:20:31.922Z,20.37
2019-02-14T03:23:00.303Z,17.87
2019-02-14T03:25:28.695Z,20.45
2019-02-14T03:27:57.080Z,24.15
2019-02-14T03:30:25.475Z,19.20
2019-02-14T03:32:53.852Z,20.10
2019-02-14T03:35:22.245Z,18.35
2019-02-14T03:37:50.627Z,17.90
2019-02-14T03:40:19.021Z,18.05
2019-02-14T03:42:47.400Z,18.05
2019-02-14T03:45:19.863Z,16.75
2019-02-14T03:47:48.247Z,20.05
2019-02-14T03:50:16.632Z,20.35
2019-02-14T03:52:45.367Z,21.65
2019-02-14T03:55:13.755Z,22.55
2019-02-14T03:57:42.147Z,22.27
2019-02-14T04:00:13.239Z,18.30
2019-02-14T04:02:41.625Z,20.12
2019-02-14T04:05:10.081Z,16.97
2019-02-14T04:07:39.104Z,16.87
2019-02-14T04:10:10.396Z,18.90
2019-02-14T04:12:38.776Z,17.52
2019-02-14T04:15:13.019Z,18.70
2019-02-14T04:17:41.401Z,23.83
2019-02-14T04:20:10.931Z,18.77
2019-02-14T04:22:39.312Z,18.37
2019-02-14T04:25:09.239Z,21.07
2019-02-14T04:27:37.625Z,19.90
2019-02-14T04:30:09.105Z,21.17
2019-02-14T04:32:37.488Z,22.13
2019-02-14T04:35:06.149Z,19.67
2019-02-14T04:37:34.527Z,20.75
2019-02-14T04:40:03.091Z,23.02
2019-02-14T04:42:31.715Z,17.35
2019-02-14T04:45:00.251Z,26.00
2019-02-14T04:47:28.768Z,25.17
2019-02-14T04:49:57.163Z,18.25
2019-02-14T04:52:25.545Z,17.15
2019-02-14T04:54:53.939Z,23.90
2019-02-14T04:57:22.323Z,26.10
2019-02-14T04:59:50.708Z,20.75
2019-02-14T05:02:19.089Z,21.80
2019-02-14T05:04:47.484Z,18.57
2019-02-14T05:07:15.869Z,20.62
2019-02-14T05:09:44.264Z,18.37
2019-02-14T05:12:12.644Z,20.65
2019-02-14T05:14:41.035Z,21.60
2019-02-14T05:17:09.414Z,21.62
2019-02-14T05:19:37.884Z,26.62
2019-02-14T05:22:06.276Z,23.20
2019-02-14T05:24:34.669Z,23.57
2019-02-14T05:27:03.060Z,24.05
2019-02-14T05:29:31.455Z,17.70
2019-02-14T05:31:59.840Z,21.75
2019-02-14T05:34:28.240Z,19.57
2019-02-14T05:36:56.703Z,19.80
2019-02-14T05:39:25.094Z,21.57
2019-02-14T05:41:53.480Z,19.15
2019-02-14T05:44:21.881Z,23.92
2019-02-14T05:46:50.267Z,26.35
2019-02-14T05:49:18.655Z,19.82
2019-02-14T05:51:47.035Z,17.10
2019-02-14T05:54:15.441Z,23.42
2019-02-14T05:56:43.828Z,17.80
2019-02-14T05:59:12.224Z,20.37
2019-02-14T06:01:40.619Z,21.70
2019-02-14T06:04:09.016Z,17.50
2019-02-14T06:06:37.404Z,21.42
2019-02-14T06:09:06.376Z,21.73
2019-02-14T06:11:34.776Z,16.35
2019-02-14T06:14:03.191Z,22.62
2019-02-14T06:16:31.586Z,19.77
2019-02-14T06:18:59.985Z,22.77
2019-02-14T06:21:28.375Z,18.30
2019-02-14T06:23:56.768Z,16.60
2019-02-14T06:26:25.477Z,17.55
2019-02-14T06:28:53.864Z,21.40
2019-02-14T06:31:22.515Z,16.95
2019-02-14T06:33:50.914Z,22.82
2019-02-14T06:36:19.355Z,18.02
2019-02-14T06:38:47.845Z,19.80
2019-02-14T06:41:16.257Z,20.17
2019-02-14T06:43:44.645Z,22.55
2019-02-14T06:46:13.047Z,18.70
2019-02-14T06:48:41.446Z,26.95
2019-02-14T06:51:09.855Z,19.12
2019-02-14T06:53:38.234Z,26.55
2019-02-14T06:56:06.634Z,21.23
2019-02-14T06:58:35.014Z,21.68
2019-02-14T07:01:03.419Z,24.05
2019-02-14T07:03:31.808Z,30.52
2019-02-14T07:06:00.200Z,24.25
2019-02-14T07:08:28.584Z,22.45
2019-02-14T07:10:57.695Z,23.70
2019-02-14T07:13:26.128Z,20.72
2019-02-14T07:15:54.551Z,23.55
2019-02-14T07:18:22.978Z,20.62
2019-02-14T07:20:51.373Z,16.30
2019-02-14T07:23:19.773Z,18.92
2019-02-14T07:25:48.175Z,14.68
2019-02-14T07:28:16.576Z,19.30
2019-02-14T07:30:44.980Z,19.92
2019-02-14T07:33:32.708Z,21.80
2019-02-14T07:36:01.113Z,20.45
2019-02-14T07:38:29.503Z,13.75
2019-02-14T07:40:57.900Z,19.52
2019-02-14T07:43:26.276Z,18.70
2019-02-14T07:45:54.668Z,13.13
2019-02-14T07:48:23.047Z,21.02
2019-02-14T07:50:51.442Z,19.05
2019-02-14T07:53:19.865Z,20.95
2019-02-14T07:55:48.242Z,17.95
2019-02-14T07:58:17.149Z,16.20
2019-02-14T08:00:45.535Z,14.93
2019-02-14T08:03:13.931Z,13.03
2019-02-14T08:05:42.300Z,16.10
2019-02-14T08:08:10.703Z,12.70
2019-02-14T08:10:39.164Z,13.93
2019-02-14T08:13:07.681Z,12.40
2019-02-14T08:15:36.071Z,12.98
2019-02-14T08:18:04.474Z,14.53
2019-02-14T08:20:32.856Z,14.70
2019-02-14T08:23:01.331Z,17.42
2019-02-14T08:25:29.716Z,17.55
2019-02-14T08:27:58.113Z,10.95
2019-02-14T08:30:26.492Z,18.10
2019-02-14T08:32:54.894Z,14.15
2019-02-14T08:35:23.284Z,11.25
2019-02-14T08:37:51.680Z,14.47
2019-02-14T08:40:23.142Z,12.60
2019-02-14T08:42:51.536Z,11.10
2019-02-14T08:45:19.915Z,11.50
2019-02-14T08:47:48.315Z,18.77
2019-02-14T08:50:16.700Z,15.98
2019-02-14T08:52:45.100Z,11.65
2019-02-14T08:55:13.487Z,13.93
2019-02-14T08:57:41.896Z,11.05
2019-02-14T09:00:12.690Z,11.10
2019-02-14T09:02:41.095Z,17.57
2019-02-14T09:05:09.548Z,15.18
2019-02-14T09:07:37.983Z,13.53
2019-02-14T09:10:16.585Z,11.97
2019-02-14T09:12:44.974Z,13.65
2019-02-14T09:15:14.508Z,12.23
2019-02-14T09:17:43.296Z,14.58
2019-02-14T09:20:17.373Z,10.82
2019-02-14T09:22:45.766Z,16.62
2019-02-14T09:25:14.158Z,14.90
2019-02-14T09:27:42.544Z,12.68
2019-02-14T09:30:13.158Z,21.75
2019-02-14T09:35:09.991Z,16.20
2019-02-14T09:37:38.376Z,19.27
2019-02-14T09:40:12.207Z,17.30
2019-02-14T09:42:40.598Z,17.30
2019-02-14T09:45:11.350Z,12.82
2019-02-14T09:47:39.810Z,14.85
2019-02-14T09:50:10.555Z,11.83
2019-02-14T09:52:39.104Z,13.05
2019-02-14T09:55:09.943Z,14.87
2019-02-14T09:57:38.624Z,10.23
2019-02-14T10:00:17.419Z,16.00
2019-02-14T10:02:45.810Z,13.83
2019-02-14T10:05:15.274Z,13.85
2019-02-14T10:07:43.698Z,14.23
2019-02-14T10:10:17.631Z,15.75
2019-02-14T10:12:45.994Z,13.90
2019-02-14T10:15:14.612Z,14.13
2019-02-14T10:17:43.009Z,11.85
2019-02-14T10:20:15.905Z,15.48
2019-02-14T10:22:44.280Z,13.83
2019-02-14T10:25:13.220Z,12.30
2019-02-14T10:27:41.602Z,14.90
2019-02-14T10:30:13.040Z,18.50
2019-02-14T10:32:41.419Z,13.85
2019-02-14T10:35:10.091Z,18.65
2019-02-14T10:37:38.484Z,12.75
2019-02-14T10:40:09.780Z,15.55
2019-02-14T10:42:38.175Z,18.42
2019-02-14T10:45:12.255Z,19.73
2019-02-14T10:47:40.655Z,17.23
2019-02-14T10:50:10.794Z,13.72
2019-02-14T10:52:39.175Z,15.80
2019-02-14T10:55:10.027Z,17.57
2019-02-14T10:57:38.502Z,15.72
2019-02-14T11:00:16.210Z,22.50
2019-02-14T11:02:44.461Z,13.90
2019-02-14T11:05:14.404Z,18.20
2019-02-14T11:07:42.791Z,13.62
2019-02-14T11:10:13.027Z,14.18
2019-02-14T11:12:41.408Z,17.12
2019-02-14T11:15:12.647Z,17.15
2019-02-14T11:17:41.032Z,16.45
2019-02-14T11:20:11.872Z,17.42
2019-02-14T11:22:40.251Z,23.60
2019-02-14T11:25:11.354Z,17.35
2019-02-14T11:27:39.748Z,17.35
2019-02-14T11:30:13.820Z,16.85
2019-02-14T11:32:42.290Z,16.07
2019-02-14T11:35:11.064Z,18.50
2019-02-14T11:37:39.836Z,13.32
2019-02-14T11:40:10.863Z,15.38
2019-02-14T11:42:39.340Z,18.23
2019-02-14T11:45:16.519Z,18.15
2019-02-14T11:47:45.237Z,21.60
2019-02-14T11:50:13.648Z,19.60
2019-02-14T11:52:42.063Z,21.60
2019-02-14T11:55:11.187Z,18.62
2019-02-14T11:57:39.855Z,14.63
2019-02-14T12:00:15.717Z,15.28
2019-02-14T12:02:44.111Z,19.48
2019-02-14T12:05:12.511Z,21.10
2019-02-14T12:07:40.913Z,20.43
2019-02-14T12:10:13.554Z,18.20
2019-02-14T12:12:40.756Z,21.07
2019-02-14T12:15:11.462Z,22.02
2019-02-14T12:17:39.869Z,21.10
2019-02-14T12:20:12.553Z,21.25
2019-02-14T12:22:46.310Z,17.32
2019-02-14T12:25:13.449Z,21.93
2019-02-14T12:27:41.851Z,18.75
2019-02-14T12:30:12.807Z,18.67
2019-02-14T12:32:41.480Z,19.90
2019-02-14T12:35:09.970Z,20.90
2019-02-14T12:37:38.353Z,19.02
2019-02-14T12:40:09.809Z,17.98
2019-02-14T12:42:38.205Z,18.15
2019-02-14T12:45:09.779Z,21.60
2019-02-14T12:47:38.176Z,18.85
2019-02-14T12:50:09.007Z,18.65
2019-02-14T12:52:37.418Z,19.65
2019-02-14T12:55:06.940Z,20.70
2019-02-14T12:57:35.344Z,19.27
2019-02-14T13:00:05.536Z,19.48
2019-02-14T13:02:33.938Z,18.98
2019-02-14T13:05:02.331Z,21.02
2019-02-14T13:07:30.748Z,19.27
2019-02-14T13:09:59.136Z,21.75
2019-02-14T13:12:27.846Z,19.85
2019-02-14T13:14:56.243Z,21.45
2019-02-14T13:17:24.633Z,20.88
2019-02-14T13:19:53.042Z,22.25
2019-02-14T13:22:21.439Z,19.20
2019-02-14T13:24:49.848Z,17.40
2019-02-14T13:27:18.540Z,22.85
2019-02-14T13:29:47.228Z,21.80
2019-02-14T13:32:15.623Z,24.10
2019-02-14T13:34:44.026Z,20.62
2019-02-14T13:37:12.416Z,19.42
2019-02-14T13:39:40.818Z,20.25
2019-02-14T13:42:09.204Z,18.45
2019-02-14T13:44:37.597Z,24.32
2019-02-14T13:47:05.989Z,23.02
2019-02-14T13:49:34.390Z,22.32
2019-02-14T13:52:02.779Z,21.25
2019-02-14T13:54:31.176Z,22.93
2019-02-14T13:56:59.563Z,18.15
2019-02-14T13:59:27.959Z,23.15
2019-02-14T14:01:56.358Z,24.82
2019-02-14T14:04:25.878Z,25.77
2019-02-14T14:06:54.268Z,23.20
2019-02-14T14:09:22.666Z,24.00
2019-02-14T14:11:51.064Z,24.77
2019-02-14T14:14:19.469Z,20.55
2019-02-14T14:16:47.865Z,26.00
2019-02-14T14:19:16.257Z,29.65
2019-02-14T14:21:44.635Z,24.05
2019-02-14T14:24:13.042Z,23.65
2019-02-14T14:26:41.442Z,24.20
2019-02-14T14:29:09.835Z,26.75
2019-02-14T14:31:38.223Z,24.02
2019-02-14T14:34:06.623Z,27.52
2019-02-14T14:36:35.012Z,24.98
2019-02-14T14:39:04.551Z,23.00
2019-02-14T14:41:33.080Z,27.50
2019-02-14T14:44:03.124Z,26.68
2019-02-14T14:46:32.488Z,26.25
2019-02-14T14:49:00.876Z,34.63
2019-02-14T14:51:29.280Z,29.67
2019-02-14T14:53:57.668Z,30.23
2019-02-14T14:56:26.144Z,23.60
2019-02-14T14:58:54.540Z,30.02
2019-02-14T15:01:22.927Z,27.60
2019-02-14T15:03:52.168Z,32.60
2019-02-14T15:06:20.801Z,30.97
2019-02-14T15:08:49.181Z,28.55
2019-02-14T15:11:17.579Z,27.25
2019-02-14T15:13:45.976Z,31.60
2019-02-14T15:16:14.366Z,30.62
2019-02-14T15:18:42.823Z,30.05
2019-02-14T15:21:11.211Z,35.43
2019-02-14T15:23:39.646Z,29.25
2019-02-14T15:26:08.086Z,30.75
2019-02-14T15:28:37.537Z,29.90
2019-02-14T15:31:06.152Z,30.10
2019-02-14T15:33:34.552Z,34.83
2019-02-14T15:36:03.014Z,31.87
2019-02-14T15:38:32.141Z,38.10
2019-02-14T15:41:01.519Z,27.13
2019-02-14T15:43:29.902Z,31.80
2019-02-14T15:45:58.327Z,30.68
2019-02-14T15:48:26.967Z,40.28
2019-02-14T15:50:56.796Z,28.50
2019-02-14T15:53:25.344Z,31.75
2019-02-14T15:55:53.752Z,32.28
2019-02-14T15:58:22.232Z,33.80
2019-02-14T16:00:51.811Z,38.48
2019-02-14T16:03:20.747Z,33.85
2019-02-14T16:05:49.155Z,33.30
2019-02-14T16:08:19.449Z,38.40
2019-02-14T16:10:49.166Z,36.63
2019-02-14T16:13:17.767Z,38.48
2019-02-14T16:15:46.410Z,32.17
2019-02-14T16:18:14.821Z,43.25
2019-02-14T16:20:44.262Z,33.65
2019-02-14T16:23:12.867Z,33.30
2019-02-14T16:25:41.261Z,37.03
2019-02-14T16:28:11.511Z,32.48
2019-02-14T16:30:39.771Z,41.35
2019-02-14T16:33:08.168Z,40.03
2019-02-14T16:35:36.547Z,42.05
2019-02-14T16:38:04.940Z,45.23
2019-02-14T16:40:38.560Z,41.80
2019-02-14T16:43:03.489Z,40.83
2019-02-14T16:45:31.871Z,44.48
2019-02-14T16:48:00.271Z,45.20
2019-02-14T16:50:28.659Z,43.95
2019-02-14T16:52:57.051Z,42.75
2019-02-14T16:55:25.447Z,40.63
2019-02-14T16:57:53.848Z,48.25
2019-02-14T17:00:22.239Z,38.33
2019-02-14T17:02:50.636Z,39.73
2019-02-14T17:05:19.020Z,38.78
2019-02-14T17:07:47.504Z,50.67
2019-02-14T17:10:15.895Z,37.15
2019-02-14T17:12:44.299Z,40.12
2019-02-14T17:15:12.680Z,39.90
2019-02-14T17:17:41.078Z,38.85
2019-02-14T17:20:11.170Z,38.80
2019-02-14T17:22:39.576Z,40.33
2019-02-14T17:25:08.336Z,37.25
2019-02-14T17:27:36.801Z,35.20
2019-02-14T17:30:07.733Z,43.87
2019-02-14T17:32:36.225Z,32.63
2019-02-14T17:35:05.427Z,41.65
2019-02-14T17:37:33.836Z,46.30
2019-02-14T17:40:02.306Z,38.00
2019-02-14T17:42:30.699Z,39.40
2019-02-14T17:44:59.103Z,37.45
2019-02-14T17:47:27.491Z,42.60
2019-02-14T17:49:55.888Z,38.78
2019-02-14T17:52:24.267Z,42.00
2019-02-14T17:54:52.663Z,36.98
2019-02-14T17:57:21.047Z,46.50
2019-02-14T17:59:49.635Z,43.30
2019-02-14T18:02:18.596Z,41.83
2019-02-14T18:04:46.980Z,43.05
2019-02-14T18:07:15.819Z,34.18
2019-02-14T18:09:44.241Z,40.60
2019-02-14T18:12:12.649Z,37.20
2019-02-14T18:14:41.040Z,36.42
2019-02-14T18:17:09.530Z,39.15
2019-02-14T18:19:37.988Z,40.35
2019-02-14T18:22:06.371Z,38.73
2019-02-14T18:24:34.765Z,37.75
2019-02-14T18:27:03.142Z,38.35
2019-02-14T18:29:31.536Z,36.95
2019-02-14T18:31:59.926Z,39.80
2019-02-14T18:34:28.314Z,41.53
2019-02-14T18:36:56.699Z,39.63
2019-02-14T18:39:44.437Z,39.63
2019-02-14T18:42:12.832Z,38.70
2019-02-14T18:44:41.226Z,33.38
2019-02-14T18:47:09.619Z,45.12
2019-02-14T18:49:38.029Z,41.10
2019-02-14T18:52:06.396Z,37.83
2019-02-14T18:54:34.783Z,39.95
2019-02-14T18:57:03.173Z,43.90
2019-02-14T18:59:31.873Z,40.65
2019-02-14T19:02:00.261Z,37.67
2019-02-14T19:04:28.649Z,41.37
2019-02-14T19:06:57.052Z,39.03
2019-02-14T19:09:25.496Z,37.60
2019-02-14T19:11:53.867Z,43.10
2019-02-14T19:14:22.274Z,33.55
2019-02-14T19:16:50.647Z,45.03
2019-02-14T19:19:19.042Z,38.98
2019-02-14T19:21:47.423Z,39.35
2019-02-14T19:24:15.815Z,44.05
2019-02-14T19:26:44.205Z,46.92
2019-02-14T19:29:12.587Z,36.48
2019-02-14T19:31:41.227Z,34.53
2019-02-14T19:34:09.609Z,34.75
2019-02-14T19:36:38.000Z,35.28
2019-02-14T19:39:06.381Z,39.90
2019-02-14T19:41:34.775Z,41.18
2019-02-14T19:44:03.154Z,41.68
2019-02-14T19:46:31.560Z,42.08
2019-02-14T19:48:59.943Z,42.98
2019-02-14T19:51:28.349Z,37.17
2019-02-14T19:53:56.731Z,38.25
2019-02-14T19:56:25.124Z,43.38
2019-02-14T19:58:53.509Z,39.73
2019-02-14T20:01:21.900Z,38.50
2019-02-14T20:03:50.276Z,38.48
2019-02-14T20:06:18.663Z,40.78
2019-02-14T20:08:47.048Z,37.70
2019-02-14T20:11:15.439Z,48.30
2019-02-14T20:13:49.592Z,45.12
2019-02-14T20:16:13.955Z,47.05
2019-02-14T20:18:42.330Z,43.70
2019-02-14T20:21:10.724Z,38.65
2019-02-14T20:23:39.104Z,41.83
2019-02-14T20:26:07.500Z,38.48
2019-02-14T20:28:35.901Z,42.30
2019-02-14T20:31:04.289Z,40.38
2019-02-14T20:33:32.671Z,40.85
2019-02-14T20:36:01.071Z,49.15
2019-02-14T20:38:29.457Z,42.20
2019-02-14T20:40:57.851Z,41.48
2019-02-14T20:43:26.308Z,37.30
2019-02-14T20:45:54.768Z,40.40
2019-02-14T20:48:23.225Z,42.50
2019-02-14T20:50:51.617Z,42.67
2019-02-14T20:53:20.049Z,39.23
2019-02-14T20:55:48.428Z,37.50
2019-02-14T20:58:16.891Z,40.95
2019-02-14T21:00:45.291Z,38.88
2019-02-14T21:03:13.679Z,41.68
2019-02-14T21:05:42.063Z,39.67
2019-02-14T21:08:10.523Z,41.58
2019-02-14T21:10:38.908Z,41.02
2019-02-14T21:13:07.564Z,37.75
2019-02-14T21:15:35.931Z,37.33
2019-02-14T21:18:04.319Z,35.55
2019-02-14T21:20:32.708Z,40.45
2019-02-14T21:23:01.147Z,39.73
2019-02-14T21:25:29.572Z,37.35
2019-02-14T21:27:58.199Z,47.95
2019-02-14T21:30:26.589Z,42.27
2019-02-14T21:32:55.052Z,45.55
2019-02-14T21:35:23.514Z,40.85
2019-02-14T21:37:51.900Z,40.35
2019-02-14T21:40:20.577Z,41.28
2019-02-14T21:42:49.114Z,39.42
2019-02-14T21:45:18.222Z,34.88
2019-02-14T21:47:46.738Z,39.15
2019-02-14T21:50:15.985Z,39.33
2019-02-14T21:52:44.681Z,39.98
2019-02-14T21:55:14.344Z,40.15
2019-02-14T21:57:42.815Z,44.63
2019-02-14T22:00:19.979Z,45.55
2019-02-14T22:02:48.921Z,35.95
2019-02-14T22:05:17.498Z,40.43
2019-02-14T22:07:45.881Z,39.88
2019-02-14T22:10:14.288Z,40.95
2019-02-14T22:12:43.989Z,41.28
2019-02-14T22:15:18.631Z,41.35
2019-02-14T22:17:47.012Z,34.30
2019-02-14T22:20:15.409Z,36.77
2019-02-14T22:22:43.790Z,39.50
2019-02-14T22:25:12.194Z,41.55
2019-02-14T22:27:41.049Z,36.38
2019-02-14T22:30:15.925Z,34.10
2019-02-14T22:32:45.039Z,34.43
2019-02-14T22:35:13.672Z,38.78
2019-02-14T22:37:42.053Z,35.60
2019-02-14T22:40:11.679Z,39.75
2019-02-14T22:42:46.509Z,34.90
2019-02-14T22:45:13.578Z,37.90
2019-02-14T22:47:43.388Z,41.77
2019-02-14T22:50:12.319Z,39.33
2019-02-14T22:52:40.707Z,38.30
2019-02-14T22:55:10.666Z,35.58
2019-02-14T22:57:39.054Z,37.50
2019-02-14T23:00:13.420Z,32.90
2019-02-14T23:02:41.811Z,38.17
2019-02-14T23:05:10.807Z,39.42
2019-02-14T23:07:39.187Z,31.73
2019-02-14T23:10:07.575Z,33.60
2019-02-14T23:12:36.027Z,39.03
2019-02-14T23:15:06.475Z,37.88
2019-02-14T23:17:34.864Z,31.52
2019-02-14T23:20:03.545Z,35.25
2019-02-14T23:22:31.940Z,33.40
2019-02-14T23:25:00.320Z,29.02
2019-02-14T23:27:28.711Z,34.27
2019-02-14T23:29:57.095Z,32.05
2019-02-14T23:32:27.072Z,35.25
2019-02-14T23:34:55.652Z,37.98
2019-02-14T23:37:24.047Z,31.97
2019-02-14T23:39:52.430Z,31.93
2019-02-14T23:42:20.887Z,32.63
2019-02-14T23:44:49.277Z,30.80
2019-02-14T23:47:17.673Z,32.70
2019-02-14T23:49:46.060Z,39.73
2019-02-14T23:52:14.447Z,37.45
2019-02-14T23:54:42.831Z,31.62
2019-02-14T23:57:11.229Z,37.05
2019-02-14T23:59:39.600Z,32.98
